Погода Липнякина неделю

Гомельская область, Белоруссия

24 - 30 мая
  • 24мая
    Сегодня
    +12°
    +25°
    Ясно и безоблачно
    ВремяПогодаТемператураВлажностьДавлениеВетер, м/сВероятность осадков
    00:00Ясно и безоблачно+16°C51 %755 мм1.9 м/с2 %
    03:00Ясно и безоблачно+15°C50 %756 мм1.7 м/с2 %
    06:00Ясно и безоблачно+14°C53 %757 мм1.7 м/с2 %
    09:00Ясно и безоблачно+16°C48 %758 мм2.7 м/с2 %
    12:00Ясно и безоблачно+21°C44 %758 мм3.0 м/с2 %
    15:00Ясно и безоблачно+24°C39 %758 мм3.4 м/с2 %
    18:00Ясно и безоблачно+24°C40 %757 мм3.1 м/с2 %
    21:00Ясно и безоблачно+20°C51 %758 мм1.7 м/с2 %
  • 25мая
    Суббота
    +11°
    +25°
    Ясно и безоблачно
    ВремяПогодаТемператураВлажностьДавлениеВетер, м/сВероятность осадков
    00:00Ясно и безоблачно+16°C58 %758 мм1.4 м/с2 %
    03:00Ясно и безоблачно+14°C60 %758 мм1.2 м/с2 %
    06:00Ясно и безоблачно+13°C61 %758 мм1.2 м/с2 %
    09:00Ясно и безоблачно+18°C49 %759 мм2.1 м/с2 %
    12:00Ясно и безоблачно+23°C34 %758 мм2.9 м/с2 %
    15:00Ясно и безоблачно+24°C28 %758 мм3.0 м/с2 %
    18:00Ясно и безоблачно+24°C30 %756 мм2.7 м/с2 %
    21:00Ясно и безоблачно+20°C60 %756 мм1.0 м/с2 %
  • 26мая
    Воскресенье
    +13°
    +26°
    Ясно и безоблачно
    ВремяПогодаТемператураВлажностьДавлениеВетер, м/сВероятность осадков
    00:00Небольшая облачность+15°C74 %756 мм0.6 м/с2 %
    03:00Облачно с прояснениями+13°C77 %756 мм0.4 м/с2 %
    06:00Облачно с прояснениями+13°C79 %756 мм0.4 м/с2 %
    09:00Облачно с прояснениями+19°C59 %756 мм1.3 м/с2 %
    12:00Небольшая облачность+23°C34 %756 мм2.4 м/с2 %
    15:00Ясно и безоблачно+25°C33 %756 мм2.7 м/с2 %
    18:00Практически безоблачно+25°C38 %755 мм2.7 м/с2 %
    21:00Небольшая облачность+21°C68 %755 мм0.9 м/с2 %
  • 27мая
    Понедельник
    +14°
    +27°
    Практически безоблачно
    ВремяПогодаТемператураВлажностьДавлениеВетер, м/сВероятность осадков
    00:00Ясно и безоблачно+17°C62 %755 мм0.4 м/с2 %
    03:00Ясно и безоблачно+15°C80 %755 мм0.3 м/с2 %
    06:00Ясно и безоблачно+15°C80 %756 мм0.6 м/с2 %
    09:00Ясно и безоблачно+21°C53 %756 мм1.6 м/с2 %
    12:00Ясно и безоблачно+25°C40 %756 мм2.6 м/с8 %
    15:00Практически безоблачно+27°C36 %756 мм3.0 м/с33 %
    18:00Практически безоблачно+27°C42 %755 мм2.3 м/с31 %
    21:00Небольшая облачность+22°C59 %755 мм1.3 м/с11 %
  • 28мая
    Вторник
    +16°
    +27°
    Практически безоблачно
    ВремяПогодаТемператураВлажностьДавлениеВетер, м/сВероятность осадков
    00:00Ясно и безоблачно+19°C75 %755 мм0.9 м/с2 %
    03:00Ясно и безоблачно+16°C70 %755 мм0.7 м/с2 %
    06:00Практически безоблачно+15°C69 %756 мм0.9 м/с2 %
    09:00Ясно и безоблачно+20°C55 %756 мм2.0 м/с2 %
    12:00Ясно и безоблачно+25°C46 %755 мм2.8 м/с2 %
    15:00Практически безоблачно+27°C39 %754 мм3.1 м/с2 %
    18:00Практически безоблачно+27°C39 %754 мм2.5 м/с2 %
    21:00Практически безоблачно+23°C57 %753 мм1.1 м/с2 %
Мы используем cookies
Соглашаюсь